Saskatoon John G. Diefenbaker International Airport
CYXE : now visible

Airfield :











YOU CAN JOIN US ON...

 
LOGIN :

Register | Disclaimer

   EN    FR    IT 

 









Legend :    VFR   Marginal VFR   IFR   Intensive IFR   Very Intensive IFR
Visi :
Ceiling :
>= 8 km
>= 3000ft
5 to 8 km
1000 to 3000 ft
1500m to 5 km
500 to 1000 ft
800 to 1500m
200 to 500 ft
< 800m
< 200 ft
Symbols :   Thunderstorms  Fog  Heavy snow  Heavy precipitations  Wind > 20 kt






- Airport Elevation : 1653 ft
- IATA code : YXE


CYXE - Saskatoon John G. Diefenbaker International

CURRENT METAR :
  • 290600Z 14021G27KT 15SM SCT300 18/06 A2987 RMK CI4 SLP120 DENSITY ALT 2500FT

EXPIRED METARs :
  • 290500Z 14019G29KT 15SM BKN300 19/06 A2987 RMK CI5 SLP121 DENSITY ALT 2600FT
  • 290400Z 13022G29KT 15SM BKN300 20/06 A2988 RMK CI6 SLP122 DENSITY ALT 2700FT
  • 290300Z 13017G25KT 15SM BKN300 21/06 A2988 RMK CI6 SLP125 DENSITY ALT 2900FT
  • 290200Z 14016G25KT 15SM SCT300 24/07 A2989 RMK CI4 SLP128 DENSITY ALT 3100FT

TAF TAF CYXE
Valid from the 29 at 06:00 until the 30 at 06:00 UTC


290540Z 2906/3006 14020G30KT P6SM BKN300
FM290800 14017G27KT P6SM SCT120 BKN300
TEMPO 2908/2914 BKN120
FM291800 18017KT P6SM BKN140 BKN260
TEMPO 2918/2924 P6SM -SHRA BKN050 BKN120
BECMG 2919/2921 26015KT
FM300000 25010KT P6SM FEW060
FM300300 25008KT P6SM BKN060 RMK NXT FCST BY 291200Z
CZWG FIR / North America



MET'MAP, your aeronautical weather chart ! - Copyright ORBIFLY December 2007 - Disclaimer

ORBIFLY MET'MAP TEAM :

Programming & Development : Alexandra Zaïnal
Original concept : Baudouin d'Aumeries
Technical & hardware support : Manuel Goepfert
Assistance : Marc-Olivier Méhu




SOURCES & CREDITS :

   NOAA       Earth
Advisory